createdAt,value
2022-08-13T00:00:46.421Z,18.40
2022-08-13T00:04:00.462Z,18.10
2022-08-13T00:06:21.994Z,18.10
2022-08-13T00:08:53.422Z,18.20
2022-08-13T00:11:59.559Z,18.40
2022-08-13T00:14:36.739Z,18.50
2022-08-13T00:17:14.972Z,18.60
2022-08-13T00:19:49.628Z,18.70
2022-08-13T00:22:30.617Z,18.20
2022-08-13T00:25:13.510Z,17.90
2022-08-13T00:28:02.033Z,17.40
2022-08-13T00:30:32.971Z,17.20
2022-08-13T00:33:05.632Z,17.40
2022-08-13T00:35:40.382Z,17.60
2022-08-13T00:38:16.673Z,17.90
2022-08-13T00:40:56.404Z,18.10
2022-08-13T00:43:27.083Z,18.20
2022-08-13T00:45:55.816Z,18.00
2022-08-13T00:48:47.038Z,17.60
2022-08-13T00:51:57.234Z,17.40
2022-08-13T00:54:20.171Z,17.40
2022-08-13T00:56:49.943Z,17.60
2022-08-13T00:59:17.590Z,18.00
2022-08-13T01:01:49.797Z,18.00
2022-08-13T01:04:24.860Z,18.10
2022-08-13T01:06:59.970Z,18.10
2022-08-13T01:10:18.172Z,18.20
2022-08-13T01:12:25.437Z,18.30
2022-08-13T01:14:57.272Z,18.20
2022-08-13T01:17:39.914Z,18.20
2022-08-13T01:20:32.376Z,18.20
2022-08-13T01:23:04.480Z,18.20
2022-08-13T01:25:52.969Z,18.10
2022-08-13T01:28:21.602Z,18.10
2022-08-13T01:30:51.871Z,17.60
2022-08-13T01:33:20.268Z,17.40
2022-08-13T01:35:52.466Z,17.50
2022-08-13T01:38:27.445Z,17.50
2022-08-13T01:40:55.724Z,17.70
2022-08-13T01:46:03.068Z,17.50
2022-08-13T01:48:59.647Z,17.60
2022-08-13T01:51:43.751Z,17.30
2022-08-13T01:54:39.291Z,17.00
2022-08-13T01:57:08.772Z,17.00
2022-08-13T02:00:00.606Z,17.20
2022-08-13T02:02:34.205Z,17.40
2022-08-13T02:06:19.828Z,17.60
2022-08-13T02:08:05.904Z,17.50
2022-08-13T02:10:41.160Z,17.40
2022-08-13T02:13:16.163Z,17.50
2022-08-13T02:15:51.200Z,17.60
2022-08-13T02:18:24.579Z,17.50
2022-08-13T02:20:57.328Z,17.50
2022-08-13T02:24:00.814Z,17.20
2022-08-13T02:26:20.631Z,17.10
2022-08-13T02:28:56.544Z,17.10
2022-08-13T02:32:05.432Z,17.20
2022-08-13T02:34:16.704Z,17.20
2022-08-13T02:36:48.727Z,17.00
2022-08-13T02:39:43.237Z,16.80
2022-08-13T02:42:16.239Z,16.50
2022-08-13T02:44:51.020Z,16.60
2022-08-13T02:47:32.961Z,16.70
2022-08-13T02:50:10.858Z,16.90
2022-08-13T02:52:50.580Z,17.00
2022-08-13T02:55:34.005Z,17.20
2022-08-13T02:58:03.434Z,17.50
2022-08-13T03:00:35.020Z,17.50
2022-08-13T03:03:10.550Z,17.40
2022-08-13T03:05:51.494Z,17.50
2022-08-13T03:08:39.348Z,17.50
2022-08-13T03:11:27.480Z,17.50
2022-08-13T03:14:09.453Z,17.60
2022-08-13T03:16:40.982Z,17.70
2022-08-13T03:19:09.823Z,17.60
2022-08-13T03:21:43.356Z,17.30
2022-08-13T03:24:22.402Z,17.10
2022-08-13T03:26:58.433Z,17.00
2022-08-13T03:29:30.528Z,17.10
2022-08-13T03:32:15.840Z,17.10
2022-08-13T03:34:45.832Z,17.00
2022-08-13T03:37:14.327Z,17.10
2022-08-13T03:39:43.930Z,17.20
2022-08-13T03:42:12.705Z,17.40
2022-08-13T03:44:44.119Z,17.40
2022-08-13T03:47:31.769Z,17.00
2022-08-13T03:50:00.911Z,16.60
2022-08-13T03:52:42.636Z,16.60
2022-08-13T03:55:16.496Z,16.80
2022-08-13T03:58:03.390Z,17.00
2022-08-13T04:00:40.975Z,17.20
2022-08-13T04:05:59.092Z,17.30
2022-08-13T04:08:29.935Z,17.20
2022-08-13T04:10:58.783Z,16.60
2022-08-13T04:14:01.656Z,16.70
2022-08-13T04:16:17.889Z,16.80
2022-08-13T04:18:47.201Z,17.00
2022-08-13T04:21:21.669Z,17.20
2022-08-13T04:23:55.826Z,17.40
2022-08-13T04:26:31.102Z,17.50
2022-08-13T04:29:02.372Z,17.50
2022-08-13T04:31:47.127Z,17.30
2022-08-13T04:34:33.815Z,17.30
2022-08-13T04:37:19.778Z,17.40
2022-08-13T04:40:05.602Z,17.20
2022-08-13T04:42:56.119Z,17.30
2022-08-13T04:45:26.523Z,17.50
2022-08-13T04:48:00.546Z,17.90
2022-08-13T04:50:36.080Z,17.90
2022-08-13T04:53:21.423Z,17.90
2022-08-13T04:56:08.074Z,18.00
2022-08-13T04:58:40.858Z,17.80
2022-08-13T05:01:48.367Z,17.50
2022-08-13T05:04:11.984Z,17.40
2022-08-13T05:06:50.859Z,17.40
2022-08-13T05:09:27.097Z,17.50
2022-08-13T05:12:04.384Z,17.20
2022-08-13T05:14:34.298Z,17.00
2022-08-13T05:17:05.399Z,17.00
2022-08-13T05:19:39.092Z,17.00
2022-08-13T05:22:15.874Z,17.10
2022-08-13T05:26:20.666Z,16.90
2022-08-13T05:27:46.697Z,16.80
2022-08-13T05:30:30.546Z,16.80
2022-08-13T05:33:54.403Z,16.80
2022-08-13T05:38:12.315Z,17.00
2022-08-13T05:39:17.941Z,17.40
2022-08-13T05:42:07.252Z,17.60
2022-08-13T05:44:38.714Z,18.00
2022-08-13T05:47:07.939Z,18.20
2022-08-13T05:49:42.812Z,18.10
2022-08-13T05:52:34.930Z,17.80
2022-08-13T05:56:11.481Z,18.00
2022-08-13T05:57:55.916Z,18.00
2022-08-13T06:00:42.029Z,17.80
2022-08-13T06:04:15.698Z,17.80
2022-08-13T06:06:24.220Z,17.50
2022-08-13T06:08:58.481Z,17.60
2022-08-13T06:12:08.124Z,18.00
2022-08-13T06:14:23.712Z,18.30
2022-08-13T06:17:05.833Z,18.40
2022-08-13T06:19:50.668Z,18.50
2022-08-13T06:22:21.204Z,18.60
2022-08-13T06:24:53.967Z,18.60
2022-08-13T06:27:54.207Z,18.70
2022-08-13T06:30:29.862Z,18.60
2022-08-13T06:33:58.631Z,18.30
2022-08-13T06:35:59.973Z,18.00
2022-08-13T06:38:33.492Z,18.10
2022-08-13T06:41:06.028Z,18.20
2022-08-13T06:43:47.752Z,18.40
2022-08-13T06:46:27.273Z,18.40
2022-08-13T06:49:06.273Z,18.10
2022-08-13T06:51:37.996Z,18.00
2022-08-13T06:54:22.282Z,18.10
2022-08-13T06:56:59.732Z,18.10
2022-08-13T07:00:05.201Z,18.20
2022-08-13T07:02:35.733Z,18.30
2022-08-13T07:05:08.393Z,18.50
2022-08-13T07:07:48.870Z,18.70
2022-08-13T07:10:18.786Z,18.90
2022-08-13T07:12:48.268Z,19.00
2022-08-13T07:15:25.299Z,18.90
2022-08-13T07:18:10.933Z,18.90
2022-08-13T07:20:45.767Z,18.60
2022-08-13T07:24:36.401Z,18.40
2022-08-13T07:26:10.742Z,18.40
2022-08-13T07:28:46.052Z,18.50
2022-08-13T07:31:22.865Z,18.50
2022-08-13T07:33:54.481Z,18.50
2022-08-13T07:36:26.905Z,18.70
2022-08-13T07:38:59.468Z,18.80
2022-08-13T07:41:29.734Z,18.90
2022-08-13T07:44:02.550Z,18.80
2022-08-13T07:46:36.268Z,18.80
2022-08-13T07:49:39.061Z,18.70
2022-08-13T07:52:17.277Z,18.70
2022-08-13T07:54:49.437Z,18.80
2022-08-13T07:57:27.138Z,18.80
2022-08-13T08:00:03.212Z,18.80
2022-08-13T08:02:46.870Z,18.80
2022-08-13T08:05:21.248Z,18.60
2022-08-13T08:08:06.223Z,18.40
2022-08-13T08:10:36.407Z,18.50
2022-08-13T08:13:04.674Z,18.60
2022-08-13T08:16:02.532Z,18.50
2022-08-13T08:18:33.277Z,18.20
2022-08-13T08:24:04.658Z,18.00
2022-08-13T08:24:23.150Z,18.10
2022-08-13T08:26:56.788Z,18.10
2022-08-13T08:29:24.969Z,18.10
2022-08-13T08:31:59.254Z,18.00
2022-08-13T08:34:29.744Z,18.00
2022-08-13T08:36:58.299Z,18.00
2022-08-13T08:39:46.461Z,17.80
2022-08-13T08:42:36.321Z,18.00
2022-08-13T08:45:19.659Z,18.20
2022-08-13T08:47:53.541Z,18.50
2022-08-13T08:50:27.121Z,18.70
2022-08-13T08:53:34.463Z,18.80
2022-08-13T08:56:10.241Z,18.80
2022-08-13T08:58:43.165Z,18.90
2022-08-13T09:01:36.480Z,19.20
2022-08-13T09:04:06.926Z,19.20
2022-08-13T09:06:53.664Z,19.40
2022-08-13T09:09:23.039Z,19.30
2022-08-13T09:11:55.893Z,19.00
2022-08-13T09:14:28.596Z,18.70
2022-08-13T09:17:01.930Z,18.60
2022-08-13T09:19:46.435Z,18.90
2022-08-13T09:22:26.197Z,19.10
2022-08-13T09:24:58.534Z,19.30
2022-08-13T09:28:01.243Z,19.40
2022-08-13T09:30:24.246Z,19.30
2022-08-13T09:32:57.948Z,19.40
2022-08-13T09:35:33.811Z,19.60
2022-08-13T09:38:10.188Z,20.00
2022-08-13T09:41:13.402Z,21.00
2022-08-13T09:43:50.001Z,21.70
2022-08-13T09:46:28.421Z,22.10
2022-08-13T09:48:59.344Z,22.30
2022-08-13T09:51:55.157Z,22.20
2022-08-13T09:54:27.689Z,22.10
2022-08-13T09:56:59.288Z,22.40
2022-08-13T09:59:31.405Z,22.50
2022-08-13T10:02:16.309Z,22.60
2022-08-13T10:04:47.075Z,22.60
2022-08-13T10:07:20.542Z,22.90
2022-08-13T10:10:00.150Z,23.10
2022-08-13T10:12:40.759Z,22.90
2022-08-13T10:15:11.841Z,22.80
2022-08-13T10:18:08.357Z,23.00
2022-08-13T10:20:40.614Z,22.60
2022-08-13T10:23:12.415Z,22.30
2022-08-13T10:25:50.807Z,22.60
2022-08-13T10:28:34.343Z,22.60
2022-08-13T10:31:49.433Z,22.70
2022-08-13T10:33:59.910Z,22.80
2022-08-13T10:36:34.657Z,23.20
2022-08-13T10:39:09.846Z,23.80
2022-08-13T10:41:59.978Z,24.00
2022-08-13T10:44:28.741Z,23.80
2022-08-13T10:47:01.346Z,23.60
2022-08-13T10:49:33.310Z,24.00
2022-08-13T10:52:04.864Z,24.20
2022-08-13T10:54:36.603Z,24.30
2022-08-13T10:57:06.867Z,24.60
2022-08-13T10:59:36.003Z,24.60
2022-08-13T11:02:11.907Z,24.70
2022-08-13T11:04:51.257Z,24.70
2022-08-13T11:07:20.103Z,24.60
2022-08-13T11:09:50.868Z,24.70
2022-08-13T11:12:22.124Z,24.80
2022-08-13T11:14:52.048Z,25.00
2022-08-13T11:17:35.620Z,25.00
2022-08-13T11:20:17.891Z,25.00
2022-08-13T11:22:45.590Z,25.00
2022-08-13T11:25:54.801Z,25.20
2022-08-13T11:28:12.965Z,25.60
2022-08-13T11:30:49.783Z,25.80
2022-08-13T11:33:18.883Z,25.80
2022-08-13T11:35:48.237Z,26.00
2022-08-13T11:38:19.983Z,26.10
2022-08-13T11:40:52.455Z,26.20
2022-08-13T11:43:50.860Z,26.40
2022-08-13T11:46:15.219Z,26.40
2022-08-13T11:49:08.809Z,26.50
2022-08-13T11:51:48.604Z,26.90
2022-08-13T11:54:29.448Z,27.10
2022-08-13T11:57:09.596Z,26.50
2022-08-13T11:59:44.756Z,26.70
2022-08-13T12:02:15.883Z,26.10
2022-08-13T12:04:49.296Z,26.10
2022-08-13T12:07:26.721Z,25.60
2022-08-13T12:09:58.723Z,26.10
2022-08-13T12:12:28.942Z,26.70
2022-08-13T12:15:02.401Z,26.90
2022-08-13T12:17:49.487Z,27.30
2022-08-13T12:20:21.411Z,27.40
2022-08-13T12:22:56.294Z,27.90
2022-08-13T12:25:32.867Z,28.10
2022-08-13T12:28:28.217Z,27.90
2022-08-13T12:31:08.286Z,28.00
2022-08-13T12:33:39.968Z,28.00
2022-08-13T12:36:13.442Z,27.70
2022-08-13T12:38:56.644Z,27.70
2022-08-13T12:41:39.024Z,28.10
2022-08-13T12:45:09.471Z,28.20
2022-08-13T12:47:01.091Z,28.00
2022-08-13T12:50:00.514Z,27.60
2022-08-13T12:52:22.482Z,27.20
2022-08-13T12:55:10.398Z,27.50
2022-08-13T12:58:02.514Z,27.70
2022-08-13T13:00:32.250Z,28.30
2022-08-13T13:03:02.137Z,28.40
2022-08-13T13:05:39.287Z,27.50
2022-08-13T13:08:52.425Z,26.90
2022-08-13T13:11:20.374Z,27.20
2022-08-13T13:13:59.770Z,27.30
2022-08-13T13:16:37.537Z,27.40
2022-08-13T13:19:15.524Z,27.30
2022-08-13T13:21:49.998Z,27.50
2022-08-13T13:24:23.987Z,27.80
2022-08-13T13:27:02.217Z,27.80
2022-08-13T13:29:38.572Z,28.50
2022-08-13T13:32:46.070Z,28.70
2022-08-13T13:35:05.262Z,28.50
2022-08-13T13:38:06.171Z,28.50
2022-08-13T13:40:33.532Z,28.50
2022-08-13T13:43:23.419Z,28.60
2022-08-13T13:45:48.729Z,29.10
2022-08-13T13:48:33.660Z,29.40
2022-08-13T13:51:08.543Z,29.00
2022-08-13T13:54:17.327Z,28.80
2022-08-13T13:56:34.909Z,28.50
2022-08-13T13:59:02.741Z,28.30
2022-08-13T14:01:49.832Z,28.30
2022-08-13T14:04:20.046Z,28.40
2022-08-13T14:06:47.430Z,28.60
2022-08-13T14:09:20.697Z,29.10
2022-08-13T14:11:59.192Z,28.60
2022-08-13T14:14:29.440Z,28.00
2022-08-13T14:17:22.698Z,27.70
2022-08-13T14:19:56.623Z,27.40
2022-08-13T14:23:18.209Z,27.20
2022-08-13T14:25:55.462Z,27.20
2022-08-13T14:28:24.869Z,27.30
2022-08-13T14:30:54.317Z,27.50
2022-08-13T14:33:52.877Z,27.50
2022-08-13T14:36:10.931Z,27.50
2022-08-13T14:38:43.240Z,27.30
2022-08-13T14:41:16.535Z,27.00
2022-08-13T14:44:01.644Z,26.80
2022-08-13T14:46:41.162Z,27.00
2022-08-13T14:49:23.069Z,27.20
2022-08-13T14:52:04.386Z,27.00
2022-08-13T14:54:42.010Z,27.00
2022-08-13T14:57:39.723Z,27.00
2022-08-13T15:00:20.041Z,27.20
2022-08-13T15:03:16.773Z,27.00
2022-08-13T15:05:54.328Z,27.00
2022-08-13T15:08:32.577Z,27.20
2022-08-13T15:11:06.466Z,27.00
2022-08-13T15:13:55.273Z,27.00
2022-08-13T15:16:32.446Z,26.70
2022-08-13T15:19:10.601Z,26.80
2022-08-13T15:21:48.528Z,27.00
2022-08-13T15:24:40.099Z,27.10
2022-08-13T15:27:34.018Z,26.90
2022-08-13T15:30:14.367Z,26.70
2022-08-13T15:32:53.905Z,26.50
2022-08-13T15:35:44.147Z,26.60
2022-08-13T15:38:21.949Z,26.60
2022-08-13T15:40:52.795Z,26.50
2022-08-13T15:43:37.125Z,26.40
2022-08-13T15:46:11.679Z,26.50
2022-08-13T15:48:48.857Z,26.70
2022-08-13T15:51:28.379Z,26.70
2022-08-13T15:53:59.685Z,26.70
2022-08-13T15:56:35.303Z,26.60
2022-08-13T15:59:17.338Z,26.50
2022-08-13T16:01:49.588Z,26.50
2022-08-13T16:04:21.245Z,26.50
2022-08-13T16:07:11.687Z,26.50
2022-08-13T16:09:52.015Z,26.50
2022-08-13T16:12:33.221Z,26.60
2022-08-13T16:15:11.958Z,26.50
2022-08-13T16:17:59.526Z,26.50
2022-08-13T16:20:31.331Z,26.50
2022-08-13T16:23:00.506Z,26.20
2022-08-13T16:25:44.067Z,26.20
2022-08-13T16:28:19.528Z,26.10
2022-08-13T16:30:50.271Z,26.00
2022-08-13T16:33:20.821Z,26.00
2022-08-13T16:35:49.757Z,25.90
2022-08-13T16:38:18.986Z,25.90
2022-08-13T16:40:55.649Z,25.90
2022-08-13T16:43:59.473Z,25.90
2022-08-13T16:46:20.361Z,25.80
2022-08-13T16:48:59.898Z,25.80
2022-08-13T16:51:39.062Z,25.60
2022-08-13T16:54:36.975Z,25.60
2022-08-13T16:57:01.659Z,25.50
2022-08-13T16:59:38.322Z,25.40
2022-08-13T17:02:08.957Z,25.30
2022-08-13T17:05:10.044Z,25.30
2022-08-13T17:07:58.177Z,25.10
2022-08-13T17:10:26.723Z,25.10
2022-08-13T17:12:54.136Z,25.00
2022-08-13T17:15:22.925Z,24.80
2022-08-13T17:17:54.683Z,24.70
2022-08-13T17:20:29.649Z,24.70
2022-08-13T17:23:05.956Z,24.50
2022-08-13T17:25:34.363Z,24.50
2022-08-13T17:28:02.491Z,24.60
2022-08-13T17:30:34.065Z,24.50
2022-08-13T17:33:07.516Z,24.40
2022-08-13T17:35:41.899Z,24.40
2022-08-13T17:38:12.384Z,24.30
2022-08-13T17:40:40.390Z,24.30
2022-08-13T17:43:58.905Z,24.20
2022-08-13T17:46:10.800Z,24.20
2022-08-13T17:48:59.068Z,24.20
2022-08-13T17:51:31.568Z,24.20
2022-08-13T17:54:00.494Z,24.20
2022-08-13T17:56:30.848Z,24.20
2022-08-13T17:59:01.206Z,24.20
2022-08-13T18:01:38.555Z,24.10
2022-08-13T18:04:09.696Z,24.00
2022-08-13T18:06:41.814Z,24.00
2022-08-13T18:09:15.069Z,24.00
2022-08-13T18:11:54.799Z,24.00
2022-08-13T18:14:34.065Z,24.10
2022-08-13T18:17:35.491Z,24.00
2022-08-13T18:19:54.136Z,24.00
2022-08-13T18:22:27.179Z,24.00
2022-08-13T18:25:00.378Z,24.00
2022-08-13T18:28:15.605Z,24.00
2022-08-13T18:30:29.205Z,24.00
2022-08-13T18:33:11.313Z,24.00
2022-08-13T18:35:56.861Z,24.00
2022-08-13T18:38:34.165Z,24.00
2022-08-13T18:41:04.509Z,24.00
2022-08-13T18:43:33.698Z,24.00
